Time;durP1;ratioP1;P1;durP2;ratioP2;P2;SDS_P1;SDS_P2;PMS_P1;PMS_P2;Temp;Humidity;BMP_temperature;BMP_pressure;BME280_temperature;BME280_humidity;BME280_pressure;Samples;Min_cycle;Max_cycle;Signal;HPM_P1;HPM_P2
2021/09/14 00:01:04;;;;;;;6.60;5.90;;;18.90;99.90;;;;;;5017147;28;20627;-61
2021/09/14 00:03:30;;;;;;;7.80;6.43;;;18.90;99.90;;;;;;5016735;28;20661;-62
2021/09/14 00:05:56;;;;;;;6.97;6.37;;;18.80;99.90;;;;;;5016784;28;20184;-61
2021/09/14 00:08:21;;;;;;;6.77;6.17;;;18.90;99.90;;;;;;5016923;28;20208;-60
2021/09/14 00:10:47;;;;;;;6.50;6.00;;;18.80;99.90;;;;;;5029372;28;20630;-63
2021/09/14 00:13:13;;;;;;;7.13;6.30;;;18.70;99.90;;;;;;5035975;28;20179;-63
2021/09/14 00:15:39;;;;;;;6.70;6.10;;;18.70;99.90;;;;;;5036362;28;20226;-61
2021/09/14 00:18:05;;;;;;;6.73;6.10;;;18.60;99.90;;;;;;5034879;28;20453;-61
2021/09/14 00:20:30;;;;;;;6.90;6.30;;;18.60;99.90;;;;;;5035345;28;20343;-62
2021/09/14 00:22:56;;;;;;;6.33;5.70;;;18.60;99.90;;;;;;5036128;28;20448;-62
2021/09/14 00:25:21;;;;;;;5.73;5.23;;;18.60;99.90;;;;;;5035871;28;20164;-62
2021/09/14 00:27:47;;;;;;;7.00;6.50;;;18.70;99.90;;;;;;5035899;28;20178;-61
2021/09/14 00:30:13;;;;;;;5.80;5.30;;;18.70;99.90;;;;;;5035847;28;20213;-62
2021/09/14 00:32:39;;;;;;;6.33;5.83;;;18.80;99.90;;;;;;5036046;28;20628;-62
2021/09/14 00:35:06;;;;;;;7.50;6.80;;;18.80;99.90;;;;;;5036096;28;20410;-61
2021/09/14 00:37:31;;;;;;;7.27;6.03;;;18.80;99.90;;;;;;5035564;28;20501;-62
2021/09/14 00:39:57;;;;;;;7.23;6.20;;;18.80;99.90;;;;;;5035474;28;20462;-62
2021/09/14 00:42:23;;;;;;;6.90;6.30;;;18.80;99.90;;;;;;5035767;28;20175;-61
2021/09/14 00:44:48;;;;;;;6.30;5.80;;;18.90;99.90;;;;;;5035960;28;20186;-62
2021/09/14 00:47:14;;;;;;;6.03;5.53;;;18.90;99.90;;;;;;5034788;28;20238;-62
2021/09/14 00:49:40;;;;;;;6.73;6.13;;;19.00;99.90;;;;;;5017722;28;20227;-61
2021/09/14 00:52:08;;;;;;;6.67;6.17;;;19.00;99.90;;;;;;5035279;28;20465;-61
2021/09/14 00:54:37;;;;;;;7.53;6.03;;;18.90;99.90;;;;;;5036081;28;20183;-63
2021/09/14 00:57:03;;;;;;;7.67;6.97;;;18.80;99.90;;;;;;5035671;28;20895;-62
2021/09/14 00:59:30;;;;;;;6.60;6.00;;;18.70;99.90;;;;;;5026440;28;20987;-62
2021/09/14 01:01:55;;;;;;;6.73;5.97;;;18.60;99.90;;;;;;5015820;28;20502;-62
2021/09/14 01:04:21;;;;;;;7.43;6.73;;;18.70;99.90;;;;;;5015633;28;20431;-62
2021/09/14 01:06:47;;;;;;;6.27;5.67;;;18.70;99.90;;;;;;5015332;28;20179;-62
2021/09/14 01:09:14;;;;;;;6.73;5.97;;;18.70;99.90;;;;;;5015519;28;20577;-61
2021/09/14 01:11:41;;;;;;;6.83;6.13;;;18.70;99.90;;;;;;5015340;28;20241;-61
2021/09/14 01:14:08;;;;;;;7.30;6.70;;;18.70;99.90;;;;;;5015766;28;20762;-61
2021/09/14 01:16:36;;;;;;;7.00;6.40;;;18.60;99.90;;;;;;5015458;28;20395;-62
2021/09/14 01:19:06;;;;;;;7.63;6.93;;;18.60;99.90;;;;;;5015584;28;20433;-61
2021/09/14 01:21:32;;;;;;;7.60;6.27;;;18.60;99.90;;;;;;5027964;28;20453;-61
2021/09/14 01:23:59;;;;;;;6.47;5.87;;;18.60;99.90;;;;;;5035082;28;20417;-62
2021/09/14 01:26:26;;;;;;;7.57;6.93;;;18.60;99.90;;;;;;5035132;28;20947;-62
2021/09/14 01:28:52;;;;;;;6.70;6.10;;;18.50;99.90;;;;;;5034811;28;20536;-62
2021/09/14 01:31:19;;;;;;;7.20;6.60;;;18.50;99.90;;;;;;5034819;28;20414;-62
2021/09/14 01:33:48;;;;;;;8.33;7.60;;;18.40;99.90;;;;;;5034902;28;20398;-61
2021/09/14 01:36:14;;;;;;;6.40;5.90;;;18.20;99.90;;;;;;5034638;28;20481;-62
2021/09/14 01:38:40;;;;;;;7.53;6.33;;;18.30;99.90;;;;;;5034779;28;20488;-63
2021/09/14 01:41:05;;;;;;;6.93;6.33;;;18.40;99.90;;;;;;5034714;28;20520;-61
2021/09/14 01:43:31;;;;;;;7.90;7.20;;;18.30;99.90;;;;;;5034641;28;20263;-62
2021/09/14 01:45:57;;;;;;;6.80;6.30;;;18.20;99.90;;;;;;5034484;28;20639;-62
2021/09/14 01:48:23;;;;;;;10.40;6.90;;;18.30;99.90;;;;;;5034673;28;20289;-62
2021/09/14 01:50:48;;;;;;;6.50;5.90;;;18.30;99.90;;;;;;5034302;28;20965;-63
2021/09/14 01:53:14;;;;;;;8.20;7.43;;;18.30;99.90;;;;;;5034734;28;20171;-62
2021/09/14 01:55:40;;;;;;;6.50;6.00;;;18.30;99.90;;;;;;5034220;28;20321;-63
2021/09/14 01:58:06;;;;;;;6.17;5.70;;;18.30;99.90;;;;;;5034127;28;20195;-61
2021/09/14 02:00:34;;;;;;;9.20;7.20;;;18.40;99.90;;;;;;5034342;28;20802;-61
2021/09/14 02:06:27;;;;;;;7.23;6.53;;;18.20;99.90;;;;;;5034437;28;20398;-61
2021/09/14 02:59:34;;;;;;;7.23;6.60;;;17.70;99.90;;;;;;5013949;28;20514;-61
2021/09/14 03:02:00;;;;;;;8.10;7.30;;;17.80;99.90;;;;;;5013871;28;20406;-62
2021/09/14 03:04:26;;;;;;;7.40;6.77;;;17.80;99.90;;;;;;5013640;28;20472;-62
2021/09/14 03:06:51;;;;;;;6.80;6.30;;;17.90;99.90;;;;;;5013521;28;20406;-61
2021/09/14 03:09:17;;;;;;;7.40;6.70;;;17.90;99.90;;;;;;5013541;28;20686;-62
2021/09/14 03:11:42;;;;;;;8.00;7.30;;;17.90;99.90;;;;;;5012961;28;20688;-62
2021/09/14 03:14:08;;;;;;;8.37;7.67;;;17.90;99.90;;;;;;5016625;28;20164;-62
2021/09/14 03:16:35;;;;;;;9.90;7.33;;;17.90;99.90;;;;;;5028899;28;20175;-62
2021/09/14 03:19:00;;;;;;;7.10;6.50;;;17.90;99.90;;;;;;5030713;28;20243;-62
2021/09/14 03:21:26;;;;;;;6.50;6.00;;;18.10;99.90;;;;;;5041148;23;20567;-59
2021/09/14 03:23:52;;;;;;;7.23;6.53;;;18.10;99.90;;;;;;5033578;28;20654;-58
2021/09/14 03:26:17;;;;;;;7.03;6.37;;;18.10;99.90;;;;;;5033218;28;20524;-59
2021/09/14 03:28:43;;;;;;;7.23;6.63;;;18.10;99.90;;;;;;5033501;28;20187;-58
2021/09/14 03:31:09;;;;;;;7.17;6.47;;;18.20;99.90;;;;;;5033256;28;20210;-58
2021/09/14 03:33:35;;;;;;;7.60;7.00;;;18.20;99.90;;;;;;5033499;28;20939;-58
2021/09/14 03:36:00;;;;;;;6.93;6.33;;;18.30;99.90;;;;;;5033222;28;20191;-58
2021/09/14 03:38:26;;;;;;;6.83;6.23;;;18.20;99.90;;;;;;5033296;28;20202;-56
2021/09/14 03:40:51;;;;;;;7.83;7.23;;;18.20;99.90;;;;;;5032843;28;20678;-57
2021/09/14 03:43:18;;;;;;;7.73;6.80;;;18.00;99.90;;;;;;5033397;28;20167;-58
2021/09/14 03:45:48;;;;;;;7.80;7.03;;;18.00;99.90;;;;;;5033092;28;20179;-58
2021/09/14 03:48:14;;;;;;;7.20;6.20;;;18.10;99.90;;;;;;5032993;28;20406;-58
2021/09/14 03:50:41;;;;;;;7.43;6.57;;;18.10;99.90;;;;;;5032740;28;20487;-59
2021/09/14 03:53:07;;;;;;;9.20;7.60;;;18.00;99.90;;;;;;5033848;28;20492;-59
2021/09/14 03:55:33;;;;;;;7.30;6.70;;;18.00;99.90;;;;;;5032917;28;20910;-59
2021/09/14 03:57:58;;;;;;;8.20;7.40;;;17.90;99.90;;;;;;5033595;28;20402;-58
2021/09/14 04:00:24;;;;;;;7.87;6.80;;;17.80;99.90;;;;;;5033142;28;20187;-59
2021/09/14 04:02:54;;;;;;;9.13;7.03;;;17.80;99.90;;;;;;5033203;28;20177;-58
2021/09/14 04:05:29;;;;;;;7.27;6.67;;;17.80;99.90;;;;;;5032791;28;20179;-59
2021/09/14 04:10:37;;;;;;;8.20;7.43;;;17.70;99.90;;;;;;5033243;28;20432;-59
2021/09/14 04:13:03;;;;;;;7.87;7.23;;;17.80;99.90;;;;;;5032879;28;20967;-58
2021/09/14 04:15:28;;;;;;;8.07;7.37;;;17.70;99.90;;;;;;5033264;28;20502;-58
2021/09/14 04:17:54;;;;;;;8.30;7.50;;;17.60;99.90;;;;;;5033201;28;20401;-58
2021/09/14 04:20:20;;;;;;;7.87;7.17;;;17.70;99.90;;;;;;5032233;28;20221;-58
2021/09/14 04:22:45;;;;;;;8.87;8.00;;;17.60;99.90;;;;;;5035443;28;20167;-59
2021/09/14 04:25:11;;;;;;;7.63;6.90;;;17.70;99.90;;;;;;5036193;28;20175;-57
2021/09/14 04:27:37;;;;;;;7.63;6.87;;;17.60;99.90;;;;;;5036094;28;20170;-59
2021/09/14 04:30:05;;;;;;;7.97;7.33;;;17.60;99.90;;;;;;5036063;28;20248;-59
2021/09/14 04:32:34;;;;;;;9.13;7.10;;;17.50;99.90;;;;;;5036598;28;20583;-59
2021/09/14 04:35:00;;;;;;;7.70;6.97;;;17.50;99.90;;;;;;5035989;28;20394;-58
2021/09/14 04:37:25;;;;;;;7.93;7.33;;;17.50;99.90;;;;;;5035964;28;20408;-58
2021/09/14 04:39:52;;;;;;;8.43;7.70;;;17.60;99.90;;;;;;5036128;28;20175;-59
2021/09/14 04:42:18;;;;;;;8.23;7.43;;;17.50;99.90;;;;;;5035786;28;20329;-59
2021/09/14 04:44:43;;;;;;;7.77;7.07;;;17.50;99.90;;;;;;5036226;28;20511;-58
2021/09/14 04:47:09;;;;;;;8.33;7.60;;;17.40;99.90;;;;;;5036110;28;20174;-57
2021/09/14 04:49:35;;;;;;;7.83;7.20;;;17.40;99.90;;;;;;5051294;28;20289;-57
2021/09/14 04:52:06;;;;;;;8.23;7.57;;;17.40;99.90;;;;;;5035545;28;20249;-57
2021/09/14 04:54:33;;;;;;;7.57;6.93;;;17.40;99.90;;;;;;5027224;28;20658;-57
2021/09/14 04:56:59;;;;;;;8.30;7.60;;;17.50;99.90;;;;;;5015787;28;20494;-58
2021/09/14 04:59:24;;;;;;;9.50;8.60;;;17.40;99.90;;;;;;5016171;28;20406;-59
2021/09/14 05:01:52;;;;;;;8.43;7.73;;;17.40;99.90;;;;;;5016064;28;20184;-59
2021/09/14 05:04:17;;;;;;;8.73;7.97;;;17.40;99.90;;;;;;5015985;28;20180;-56
2021/09/14 05:06:43;;;;;;;9.30;8.50;;;17.40;99.90;;;;;;5015496;28;20900;-58
2021/09/14 05:09:09;;;;;;;8.50;7.70;;;17.40;99.90;;;;;;5029992;28;20203;-56
2021/09/14 05:11:34;;;;;;;8.03;7.37;;;17.40;99.90;;;;;;5035232;28;20200;-56
2021/09/14 05:14:00;;;;;;;8.60;7.80;;;17.50;99.90;;;;;;5035518;28;20193;-57
2021/09/14 05:16:25;;;;;;;7.00;6.47;;;17.50;99.90;;;;;;5035622;28;20167;-58
2021/09/14 05:18:51;;;;;;;7.33;6.73;;;17.50;99.90;;;;;;5035651;28;20177;-58
2021/09/14 05:21:17;;;;;;;8.53;7.60;;;17.60;99.90;;;;;;5034839;28;20683;-59
2021/09/14 05:23:42;;;;;;;9.83;8.83;;;17.60;99.90;;;;;;5035242;28;20206;-59
2021/09/14 05:26:09;;;;;;;9.17;8.37;;;17.60;99.90;;;;;;5035220;28;20254;-58
2021/09/14 05:28:35;;;;;;;10.00;9.10;;;17.60;99.90;;;;;;5035006;28;20202;-60
2021/09/14 05:31:02;;;;;;;7.80;7.20;;;17.50;99.90;;;;;;5034915;28;20921;-57
2021/09/14 05:33:31;;;;;;;8.90;8.10;;;17.60;99.90;;;;;;5034418;28;20974;-59
2021/09/14 05:35:57;;;;;;;7.67;7.00;;;17.60;99.90;;;;;;5034856;28;20407;-59
2021/09/14 05:38:25;;;;;;;7.87;7.10;;;17.70;99.90;;;;;;5035063;28;20530;-57
2021/09/14 05:40:55;;;;;;;9.50;8.60;;;17.80;99.90;;;;;;5034564;28;20719;-58
2021/09/14 05:43:22;;;;;;;8.50;7.70;;;17.90;99.90;;;;;;5034801;28;20398;-57
2021/09/14 05:45:48;;;;;;;8.90;8.20;;;17.90;99.90;;;;;;5035074;28;20416;-59
2021/09/14 05:48:14;;;;;;;9.87;8.97;;;17.90;99.90;;;;;;5034748;28;20865;-58
2021/09/14 05:50:39;;;;;;;8.50;7.73;;;17.90;99.90;;;;;;5034122;28;20215;-58
2021/09/14 05:53:05;;;;;;;10.40;9.40;;;17.80;99.90;;;;;;5034409;28;20174;-58
2021/09/14 05:55:30;;;;;;;7.90;7.20;;;17.90;99.90;;;;;;5034661;28;20698;-58
2021/09/14 05:57:56;;;;;;;9.43;8.53;;;17.90;99.90;;;;;;5034107;28;20163;-58
2021/09/14 06:00:22;;;;;;;10.40;9.20;;;18.00;99.90;;;;;;5034262;28;20205;-57
2021/09/14 06:02:48;;;;;;;10.43;9.47;;;18.10;99.90;;;;;;5034819;28;20174;-56
2021/09/14 06:05:14;;;;;;;8.50;7.70;;;18.10;99.90;;;;;;5034418;28;20410;-57
2021/09/14 06:07:40;;;;;;;8.97;8.10;;;18.10;99.90;;;;;;5031378;28;20793;-57
2021/09/14 06:10:06;;;;;;;10.10;9.20;;;18.10;99.90;;;;;;5034512;28;20514;-56
2021/09/14 06:12:32;;;;;;;8.77;7.87;;;18.20;99.90;;;;;;5025554;28;20178;-56
2021/09/14 06:14:57;;;;;;;8.67;7.87;;;18.30;99.90;;;;;;5014597;28;20403;-57
2021/09/14 06:17:23;;;;;;;9.50;8.60;;;18.40;99.90;;;;;;5014221;28;20222;-57
2021/09/14 06:19:49;;;;;;;8.10;7.40;;;18.40;99.90;;;;;;5014619;28;20172;-57
2021/09/14 06:22:15;;;;;;;7.80;7.20;;;18.50;99.90;;;;;;5030908;28;20227;-56
2021/09/14 06:24:40;;;;;;;7.60;6.90;;;18.60;99.90;;;;;;5033776;28;20644;-51
2021/09/14 06:27:06;;;;;;;7.87;7.27;;;18.70;99.90;;;;;;5033869;28;20406;-55
2021/09/14 06:29:32;;;;;;;8.23;7.53;;;18.70;99.90;;;;;;5033694;28;20515;-54
2021/09/14 06:31:57;;;;;;;8.27;7.57;;;18.80;99.90;;;;;;5033714;28;20216;-57
2021/09/14 06:34:23;;;;;;;8.07;7.17;;;18.90;99.90;;;;;;5033721;28;20350;-58
2021/09/14 06:36:48;;;;;;;6.93;6.40;;;19.00;99.90;;;;;;5033400;28;20206;-58
2021/09/14 06:39:14;;;;;;;8.27;7.43;;;19.20;99.90;;;;;;5033780;28;20207;-56
2021/09/14 06:41:39;;;;;;;8.80;8.00;;;19.30;99.90;;;;;;5033342;28;20244;-57
2021/09/14 06:44:05;;;;;;;7.53;6.93;;;19.50;99.90;;;;;;5033242;28;20172;-58
2021/09/14 06:46:31;;;;;;;7.60;6.90;;;19.60;99.90;;;;;;5033210;28;20228;-57
2021/09/14 06:48:56;;;;;;;8.60;7.90;;;19.70;99.90;;;;;;5033637;28;20244;-57
2021/09/14 06:51:23;;;;;;;8.53;7.73;;;19.90;99.90;;;;;;5033288;28;20702;-57
2021/09/14 06:53:48;;;;;;;8.80;7.90;;;19.90;99.90;;;;;;5033610;28;20166;-53
2021/09/14 06:56:14;;;;;;;8.00;7.30;;;20.00;99.90;;;;;;5033030;28;20826;-56
2021/09/14 06:58:39;;;;;;;7.77;7.07;;;20.20;99.90;;;;;;5033690;28;20207;-54
2021/09/14 07:01:05;;;;;;;8.37;7.67;;;20.20;99.90;;;;;;5033446;28;20559;-57
2021/09/14 07:03:31;;;;;;;9.70;8.70;;;20.40;99.90;;;;;;5029378;28;20179;-57
2021/09/14 07:05:57;;;;;;;9.07;8.10;;;20.50;99.90;;;;;;5033273;28;20406;-57
2021/09/14 07:08:22;;;;;;;9.77;8.87;;;20.60;99.90;;;;;;5033156;28;20182;-57
2021/09/14 07:10:48;;;;;;;11.83;10.63;;;20.70;99.90;;;;;;5032602;28;20246;-57
2021/09/14 07:13:14;;;;;;;9.60;8.63;;;20.60;99.90;;;;;;5033071;28;20644;-53
2021/09/14 07:15:43;;;;;;;8.60;7.60;;;20.80;99.90;;;;;;5033339;28;20175;-57
2021/09/14 07:18:09;;;;;;;8.83;7.93;;;21.00;99.90;;;;;;5033506;28;20250;-57
2021/09/14 07:20:34;;;;;;;9.53;8.60;;;21.00;99.90;;;;;;5031656;28;20555;-58
2021/09/14 07:23:00;;;;;;;9.70;7.80;;;21.10;99.90;;;;;;5032554;28;20174;-55
2021/09/14 07:25:27;;;;;;;9.27;8.47;;;21.20;99.90;;;;;;5033213;28;20169;-57
2021/09/14 07:27:53;;;;;;;9.13;8.23;;;21.30;99.90;;;;;;5033260;28;20655;-58
2021/09/14 07:30:19;;;;;;;9.50;8.60;;;21.40;99.90;;;;;;5032758;28;20477;-56
2021/09/14 07:32:44;;;;;;;9.37;8.47;;;21.40;99.90;;;;;;5033242;28;20404;-57
2021/09/14 07:35:10;;;;;;;10.00;9.10;;;21.50;99.90;;;;;;5032898;28;20886;-58
2021/09/14 07:37:37;;;;;;;9.50;8.57;;;21.60;99.90;;;;;;5032554;28;20259;-56
2021/09/14 07:40:03;;;;;;;8.60;7.10;;;21.70;99.90;;;;;;5033084;28;20410;-59
2021/09/14 07:42:29;;;;;;;8.73;7.93;;;21.80;99.90;;;;;;5032659;28;20452;-56
2021/09/14 07:44:54;;;;;;;8.70;7.73;;;21.90;99.90;;;;;;5033301;28;20398;-56
2021/09/14 07:47:20;;;;;;;8.00;7.23;;;21.90;99.90;;;;;;5033199;28;20178;-57
2021/09/14 07:49:46;;;;;;;8.47;7.67;;;21.90;99.90;;;;;;5032840;28;20198;-58
2021/09/14 07:52:13;;;;;;;8.27;7.47;;;22.10;99.90;;;;;;5032805;28;20564;-58
2021/09/14 07:54:38;;;;;;;8.27;7.57;;;22.20;99.90;;;;;;5033007;28;20175;-57
2021/09/14 07:57:04;;;;;;;9.40;6.83;;;22.30;99.90;;;;;;5034287;28;20398;-56
2021/09/14 07:59:31;;;;;;;8.80;7.33;;;22.40;99.90;;;;;;5036561;28;20174;-57
2021/09/14 08:01:56;;;;;;;7.07;6.47;;;22.50;99.90;;;;;;5036311;28;20195;-58
2021/09/14 08:04:22;;;;;;;8.83;6.40;;;22.50;99.90;;;;;;5036650;28;20460;-58
2021/09/14 08:06:48;;;;;;;7.87;5.87;;;22.50;99.90;;;;;;5036331;28;20258;-58
2021/09/14 08:09:14;;;;;;;6.40;5.80;;;22.40;99.90;;;;;;5036420;28;20234;-56
2021/09/14 08:11:40;;;;;;;6.73;6.03;;;22.60;99.90;;;;;;5036404;28;20190;-57
2021/09/14 08:14:05;;;;;;;6.37;5.80;;;22.70;99.90;;;;;;5026073;28;20414;-59
2021/09/14 08:16:31;;;;;;;6.90;6.00;;;22.70;99.90;;;;;;5029766;28;20171;-56
2021/09/14 08:18:56;;;;;;;6.20;4.90;;;22.80;99.90;;;;;;5030445;28;20553;-57
2021/09/14 08:21:23;;;;;;;5.80;5.20;;;22.90;99.90;;;;;;5025951;28;20207;-58
2021/09/14 08:23:49;;;;;;;6.70;5.47;;;23.10;99.90;;;;;;5036522;28;20252;-57
2021/09/14 08:26:14;;;;;;;7.27;5.60;;;23.20;99.90;;;;;;5036170;28;20496;-57
2021/09/14 08:28:40;;;;;;;10.83;5.87;;;23.40;99.90;;;;;;5035777;28;20503;-58
2021/09/14 08:31:06;;;;;;;6.70;5.80;;;23.40;99.90;;;;;;5036385;28;20563;-57
2021/09/14 08:33:31;;;;;;;7.43;6.73;;;23.40;99.90;;;;;;5036231;28;20643;-56
2021/09/14 08:35:57;;;;;;;6.10;5.50;;;23.50;99.90;;;;;;5028316;28;20164;-57
2021/09/14 08:38:22;;;;;;;6.23;5.73;;;23.40;99.90;;;;;;5016096;28;20198;-57
2021/09/14 08:40:48;;;;;;;5.50;5.00;;;23.40;99.90;;;;;;5016354;28;20198;-57
2021/09/14 08:43:14;;;;;;;5.00;4.60;;;23.40;99.90;;;;;;5021344;28;20302;-58
2021/09/14 08:45:39;;;;;;;6.80;5.80;;;23.60;99.90;;;;;;5036260;28;20175;-58
2021/09/14 08:48:06;;;;;;;7.60;5.73;;;23.60;99.90;;;;;;5036454;28;20171;-57
2021/09/14 08:50:32;;;;;;;6.27;5.67;;;23.50;99.90;;;;;;5035839;28;20199;-54
2021/09/14 08:52:58;;;;;;;5.30;4.90;;;23.60;99.90;;;;;;5035440;28;20769;-55
2021/09/14 08:55:24;;;;;;;5.80;5.30;;;23.90;99.90;;;;;;5035798;28;20479;-56
2021/09/14 08:57:53;;;;;;;5.70;5.20;;;23.80;99.90;;;;;;5025911;28;20419;-57
2021/09/14 09:00:39;;;;;;;7.03;6.33;;;24.10;99.90;;;;;;5028754;28;20257;-57
2021/09/14 09:03:05;;;;;;;5.73;5.23;;;24.10;99.90;;;;;;5015728;28;20410;-57
2021/09/14 09:05:39;;;;;;;5.67;5.13;;;24.00;99.90;;;;;;5025339;28;20948;-57
2021/09/14 09:08:17;;;;;;;8.37;6.17;;;24.30;99.90;;;;;;5034637;28;20414;-56
2021/09/14 09:10:43;;;;;;;6.90;6.30;;;24.40;99.90;;;;;;5035923;28;20414;-57
2021/09/14 09:13:08;;;;;;;5.00;4.60;;;24.50;99.90;;;;;;5035839;28;20405;-57
2021/09/14 09:15:34;;;;;;;6.87;5.80;;;24.70;99.90;;;;;;5035976;28;20481;-56
2021/09/14 09:18:04;;;;;;;6.03;5.53;;;24.80;99.90;;;;;;5023891;28;20544;-55
2021/09/14 09:20:39;;;;;;;6.07;5.57;;;24.90;99.90;;;;;;5019449;28;20203;-51
2021/09/14 09:23:09;;;;;;;6.47;5.80;;;24.80;99.90;;;;;;5035889;28;20382;-57
2021/09/14 09:25:35;;;;;;;5.83;5.33;;;24.80;99.90;;;;;;5036114;28;20386;-56
2021/09/14 09:28:08;;;;;;;6.93;6.33;;;24.70;99.90;;;;;;5036110;28;20409;-58
2021/09/14 09:30:36;;;;;;;5.80;5.30;;;24.90;99.90;;;;;;5035580;28;20466;-58
2021/09/14 09:33:03;;;;;;;6.07;5.60;;;24.80;99.90;;;;;;5036042;28;20895;-57
2021/09/14 09:35:34;;;;;;;5.93;5.33;;;25.10;99.90;;;;;;5035692;28;20455;-58
2021/09/14 09:38:01;;;;;;;7.10;6.17;;;25.40;99.90;;;;;;5034961;28;20493;-57
2021/09/14 09:40:34;;;;;;;7.50;5.53;;;25.30;99.90;;;;;;5035313;28;20482;-56
2021/09/14 09:43:05;;;;;;;5.93;5.43;;;25.40;99.90;;;;;;5034638;28;20493;-57
2021/09/14 09:45:31;;;;;;;5.70;5.20;;;25.70;99.90;;;;;;5034877;28;20551;-58
2021/09/14 09:47:57;;;;;;;5.80;5.20;;;26.00;99.90;;;;;;5035212;28;20410;-56
2021/09/14 09:50:23;;;;;;;6.43;5.83;;;26.00;99.90;;;;;;5034579;28;20581;-58
2021/09/14 09:52:49;;;;;;;6.07;5.57;;;26.00;99.90;;;;;;5034422;28;20170;-58
2021/09/14 09:55:15;;;;;;;7.43;5.97;;;26.30;99.90;;;;;;5035011;28;20258;-58
2021/09/14 09:57:40;;;;;;;7.80;5.97;;;26.50;99.90;;;;;;5034556;28;20441;-58
2021/09/14 10:00:12;;;;;;;5.63;4.97;;;26.40;99.90;;;;;;5034371;28;20167;-57
2021/09/14 10:03:03;;;;;;;6.17;5.13;;;26.60;99.90;;;;;;5034764;28;20580;-58
2021/09/14 10:05:31;;;;;;;5.40;5.00;;;26.60;99.90;;;;;;5031219;28;20986;-57
2021/09/14 10:08:13;;;;;;;7.60;5.80;;;26.70;99.90;;;;;;5034746;28;20402;-58
2021/09/14 10:10:40;;;;;;;4.93;4.53;;;26.60;99.90;;;;;;5023887;28;20458;-58
2021/09/14 10:13:07;;;;;;;5.40;4.90;;;26.80;99.90;;;;;;5014660;28;20399;-56
2021/09/14 10:15:41;;;;;;;6.77;6.07;;;26.90;99.90;;;;;;5014768;28;20478;-58
2021/09/14 10:18:08;;;;;;;5.50;5.10;;;26.90;99.90;;;;;;5014293;28;21031;-58
2021/09/14 10:20:44;;;;;;;6.77;6.17;;;27.10;99.90;;;;;;5017477;28;20555;-58
2021/09/14 10:23:21;;;;;;;5.40;4.93;;;27.50;99.90;;;;;;5033955;28;20902;-57
2021/09/14 10:25:51;;;;;;;6.60;4.80;;;27.90;99.90;;;;;;5034218;28;20556;-58
2021/09/14 10:28:19;;;;;;;5.73;5.20;;;28.10;99.90;;;;;;5033977;28;20434;-58
2021/09/14 10:30:46;;;;;;;7.93;5.23;;;28.30;99.90;;;;;;5034087;28;20437;-57
2021/09/14 10:33:22;;;;;;;5.57;5.03;;;28.20;99.90;;;;;;5033844;28;20969;-58
2021/09/14 10:35:48;;;;;;;10.60;5.83;;;28.30;99.90;;;;;;5034141;28;20390;-58
2021/09/14 10:38:15;;;;;;;6.27;4.80;;;28.30;99.90;;;;;;5033691;28;20829;-59
2021/09/14 10:40:50;;;;;;;5.90;5.30;;;28.20;99.90;;;;;;5033659;28;20233;-56
2021/09/14 10:43:34;;;;;;;5.57;5.03;;;28.40;99.90;;;;;;5033607;28;20911;-58
2021/09/14 10:46:01;;;;;;;5.77;5.27;;;28.40;99.90;;;;;;5033512;28;20382;-59
2021/09/14 10:48:29;;;;;;;5.80;5.30;;;28.80;99.90;;;;;;5033721;28;20402;-58
2021/09/14 10:51:08;;;;;;;6.03;5.50;;;29.00;99.90;;;;;;5031793;28;20514;-59
2021/09/14 10:53:35;;;;;;;5.10;4.60;;;29.00;99.60;;;;;;5013374;28;20415;-58
2021/09/14 10:56:00;;;;;;;6.80;6.10;;;29.80;98.90;;;;;;5012166;28;20778;-59
2021/09/14 10:58:27;;;;;;;5.90;5.30;;;30.70;97.90;;;;;;5017133;28;20413;-57
2021/09/14 11:00:54;;;;;;;5.13;4.73;;;31.90;96.20;;;;;;5033624;28;20190;-59
2021/09/14 11:03:20;;;;;;;6.03;5.43;;;31.70;96.20;;;;;;5033389;28;20402;-59
2021/09/14 11:05:50;;;;;;;5.10;4.60;;;31.50;95.50;;;;;;5033373;28;20457;-59
2021/09/14 11:08:21;;;;;;;4.93;4.53;;;32.40;95.40;;;;;;5033153;28;20451;-59
2021/09/14 11:10:47;;;;;;;5.73;5.20;;;32.20;94.60;;;;;;5033740;28;20442;-60
2021/09/14 11:13:31;;;;;;;7.20;5.43;;;31.90;94.80;;;;;;5032921;28;20451;-60
2021/09/14 11:16:02;;;;;;;5.90;5.40;;;32.20;93.80;;;;;;5033198;28;20147;-60
2021/09/14 11:18:31;;;;;;;4.50;4.00;;;33.30;93.10;;;;;;5033378;28;20489;-60
2021/09/14 11:21:08;;;;;;;5.27;4.77;;;34.30;92.50;;;;;;5032945;28;20480;-61
2021/09/14 11:23:38;;;;;;;4.97;4.57;;;35.40;90.10;;;;;;5032917;28;20493;-61
2021/09/14 11:26:08;;;;;;;5.03;4.63;;;35.60;87.20;;;;;;5033196;28;20398;-61
2021/09/14 11:28:34;;;;;;;6.37;5.87;;;37.00;83.70;;;;;;5032553;28;20894;-61
2021/09/14 11:31:02;;;;;;;6.17;5.63;;;36.10;79.20;;;;;;5033103;28;20432;-59
2021/09/14 11:33:29;;;;;;;5.60;5.20;;;35.50;82.80;;;;;;5037202;28;20162;-61
2021/09/14 11:35:57;;;;;;;4.60;4.20;;;35.90;81.60;;;;;;5037195;28;20406;-60
2021/09/14 11:38:24;;;;;;;5.03;4.60;;;36.70;78.20;;;;;;5036541;28;20436;-60
2021/09/14 11:41:01;;;;;;;5.60;4.43;;;37.30;75.70;;;;;;5037022;28;20418;-60
2021/09/14 11:43:34;;;;;;;4.93;4.40;;;36.40;80.60;;;;;;5036595;28;20410;-58
2021/09/14 11:46:13;;;;;;;4.67;4.20;;;36.70;75.70;;;;;;5037321;28;20390;-60
2021/09/14 11:48:39;;;;;;;5.67;5.17;;;37.00;76.20;;;;;;5036592;28;20385;-60
2021/09/14 11:51:06;;;;;;;6.03;4.90;;;36.40;79.20;;;;;;5036731;28;20914;-61
2021/09/14 11:53:33;;;;;;;5.13;4.73;;;35.10;77.80;;;;;;5036355;28;20596;-61
2021/09/14 11:55:58;;;;;;;5.97;5.37;;;33.80;82.30;;;;;;5036814;28;20745;-59
2021/09/14 11:58:29;;;;;;;5.30;4.87;;;33.70;85.70;;;;;;5036378;28;20451;-61
2021/09/14 12:00:57;;;;;;;5.03;4.63;;;33.50;86.50;;;;;;5036431;28;20678;-60
2021/09/14 12:03:37;;;;;;;6.03;5.43;;;33.30;84.60;;;;;;5036789;28;20777;-58
2021/09/14 12:06:04;;;;;;;5.47;4.63;;;33.10;87.00;;;;;;5036367;28;20504;-60
2021/09/14 12:08:38;;;;;;;9.90;4.77;;;32.90;85.90;;;;;;5036276;28;20808;-60
2021/09/14 12:11:03;;;;;;;5.93;4.00;;;33.50;85.20;;;;;;5036493;28;20902;-61
2021/09/14 12:13:43;;;;;;;5.63;4.97;;;33.50;85.70;;;;;;5036125;28;20485;-60
2021/09/14 12:16:13;;;;;;;5.33;4.83;;;33.00;85.20;;;;;;5036484;28;20191;-60
2021/09/14 12:18:42;;;;;;;7.33;5.87;;;32.30;86.90;;;;;;5036266;28;20406;-60
2021/09/14 12:21:08;;;;;;;6.07;5.47;;;31.80;90.10;;;;;;5035738;28;20507;-60
2021/09/14 12:23:34;;;;;;;6.47;5.97;;;31.60;90.80;;;;;;5036223;28;20408;-60
2021/09/14 12:25:59;;;;;;;7.60;6.80;;;31.10;90.80;;;;;;5036263;28;20405;-60
2021/09/14 12:28:25;;;;;;;6.47;5.70;;;30.40;92.10;;;;;;5035975;28;20618;-60
2021/09/14 12:30:51;;;;;;;6.50;6.00;;;30.20;92.50;;;;;;5036048;28;20203;-60
2021/09/14 12:33:16;;;;;;;12.60;6.20;;;30.00;93.10;;;;;;5035913;28;20221;-60
2021/09/14 12:35:43;;;;;;;6.70;6.10;;;29.60;93.30;;;;;;5036543;28;20179;-60
2021/09/14 12:38:09;;;;;;;9.37;7.07;;;29.20;93.70;;;;;;5035487;28;20175;-59
2021/09/14 12:40:34;;;;;;;5.30;4.80;;;29.00;94.30;;;;;;5035637;28;20429;-60
2021/09/14 12:43:00;;;;;;;6.07;5.43;;;29.00;94.30;;;;;;5034102;28;20187;-60
2021/09/14 12:45:25;;;;;;;7.70;5.70;;;29.30;94.30;;;;;;5023886;28;20263;-60
2021/09/14 12:47:51;;;;;;;6.20;5.60;;;29.30;94.00;;;;;;5015779;28;20168;-59
2021/09/14 12:50:17;;;;;;;6.77;5.70;;;30.50;93.00;;;;;;5016829;28;20245;-59
2021/09/14 12:52:43;;;;;;;6.17;5.57;;;31.40;90.90;;;;;;5035396;28;20194;-60
2021/09/14 12:55:09;;;;;;;6.30;5.70;;;31.60;91.00;;;;;;5035965;28;20246;-58
2021/09/14 12:57:35;;;;;;;6.33;4.83;;;31.60;90.50;;;;;;5034030;28;20759;-60
2021/09/14 13:00:01;;;;;;;5.90;5.40;;;31.80;90.50;;;;;;5034273;28;20960;-60
2021/09/14 13:02:27;;;;;;;8.03;5.53;;;31.80;90.90;;;;;;5031351;28;20461;-60
2021/09/14 13:04:53;;;;;;;5.17;4.67;;;31.80;90.10;;;;;;5015994;28;20403;-60
2021/09/14 13:07:18;;;;;;;5.83;5.07;;;31.10;91.10;;;;;;5015582;28;20260;-60
2021/09/14 13:09:44;;;;;;;6.63;4.90;;;31.20;90.80;;;;;;5015532;28;20192;-60
2021/09/14 13:12:10;;;;;;;6.90;5.17;;;31.40;90.70;;;;;;5015262;28;20226;-60
2021/09/14 13:17:20;;;;;;;5.43;4.93;;;33.00;87.20;;;;;;5035452;28;20393;-60
2021/09/14 13:19:46;;;;;;;5.90;5.30;;;33.40;85.80;;;;;;5035157;28;20402;-60
2021/09/14 13:22:12;;;;;;;6.57;5.17;;;34.50;83.60;;;;;;5034606;28;20219;-60
2021/09/14 13:24:38;;;;;;;9.73;5.17;;;35.40;80.60;;;;;;5034904;28;20210;-58
2021/09/14 13:27:04;;;;;;;4.97;4.57;;;35.60;79.20;;;;;;5035785;28;20632;-60
2021/09/14 13:29:29;;;;;;;6.10;4.43;;;36.40;77.60;;;;;;5034736;28;20457;-60
2021/09/14 13:31:55;;;;;;;5.60;4.30;;;37.20;76.60;;;;;;5035098;28;20248;-61
2021/09/14 13:34:21;;;;;;;5.10;4.70;;;38.00;71.80;;;;;;5035274;28;20684;-60
2021/09/14 13:36:46;;;;;;;4.90;4.50;;;38.10;72.10;;;;;;5034990;28;20203;-60
2021/09/14 13:39:12;;;;;;;6.37;5.77;;;37.90;70.60;;;;;;5034509;28;20539;-60
2021/09/14 13:41:41;;;;;;;5.17;4.67;;;37.90;70.10;;;;;;5035150;28;20636;-60
2021/09/14 13:47:08;;;;;;;9.20;5.93;;;37.50;70.00;;;;;;4997430;28;20416;-60